createdAt,value
2022-08-12T00:02:45.421Z,1.10
2022-08-12T00:05:32.003Z,1.05
2022-08-12T00:08:35.658Z,1.30
2022-08-12T00:11:22.785Z,1.25
2022-08-12T00:14:08.963Z,1.40
2022-08-12T00:16:56.533Z,1.20
2022-08-12T00:19:41.809Z,1.02
2022-08-12T00:22:28.841Z,1.00
2022-08-12T00:25:19.033Z,1.05
2022-08-12T00:28:05.899Z,1.10
2022-08-12T00:30:51.966Z,1.20
2022-08-12T00:33:52.393Z,1.23
2022-08-12T00:36:43.984Z,0.90
2022-08-12T00:39:31.090Z,1.20
2022-08-12T00:42:11.644Z,1.13
2022-08-12T00:44:44.289Z,1.35
2022-08-12T00:49:55.231Z,1.20
2022-08-12T00:52:24.124Z,1.33
2022-08-12T00:54:54.304Z,1.00
2022-08-12T00:57:26.364Z,1.35
2022-08-12T00:59:56.253Z,1.45
2022-08-12T01:02:26.874Z,1.30
2022-08-12T01:05:15.087Z,1.52
2022-08-12T01:08:01.070Z,0.95
2022-08-12T01:10:49.636Z,1.40
2022-08-12T01:13:20.604Z,1.33
2022-08-12T01:15:50.733Z,1.20
2022-08-12T01:18:20.766Z,1.48
2022-08-12T01:21:12.013Z,1.30
2022-08-12T01:23:50.364Z,1.45
2022-08-12T01:26:23.653Z,1.33
2022-08-12T01:28:58.435Z,1.40
2022-08-12T01:31:29.433Z,1.38
2022-08-12T01:34:04.653Z,1.42
2022-08-12T01:36:38.665Z,1.33
2022-08-12T01:39:07.272Z,1.30
2022-08-12T01:41:44.979Z,1.30
2022-08-12T01:44:22.028Z,1.42
2022-08-12T01:46:57.337Z,1.50
2022-08-12T01:49:51.591Z,1.58
2022-08-12T01:52:36.144Z,1.25
2022-08-12T01:55:07.141Z,1.30
2022-08-12T01:57:57.157Z,1.52
2022-08-12T02:00:46.102Z,1.20
2022-08-12T02:04:07.632Z,1.20
2022-08-12T02:07:07.444Z,1.40
2022-08-12T02:10:49.065Z,1.42
2022-08-12T02:13:08.875Z,1.40
2022-08-12T02:15:46.383Z,1.70
2022-08-12T02:18:26.226Z,1.40
2022-08-12T02:21:02.696Z,1.25
2022-08-12T02:23:32.628Z,1.35
2022-08-12T02:26:05.532Z,1.20
2022-08-12T02:28:35.598Z,1.55
2022-08-12T02:31:06.311Z,1.13
2022-08-12T02:33:35.319Z,1.50
2022-08-12T02:36:05.310Z,1.60
2022-08-12T02:38:34.044Z,1.70
2022-08-12T02:41:05.717Z,1.45
2022-08-12T02:43:41.566Z,1.20
2022-08-12T02:46:14.892Z,1.40
2022-08-12T02:48:49.186Z,1.58
2022-08-12T02:51:23.780Z,1.50
2022-08-12T02:54:04.994Z,1.27
2022-08-12T02:56:38.031Z,1.30
2022-08-12T02:59:12.110Z,1.45
2022-08-12T03:01:48.217Z,1.45
2022-08-12T03:04:26.981Z,1.52
2022-08-12T03:07:03.965Z,1.70
2022-08-12T03:09:50.705Z,1.45
2022-08-12T03:12:26.608Z,1.50
2022-08-12T03:15:06.724Z,1.85
2022-08-12T03:17:39.814Z,1.50
2022-08-12T03:20:11.175Z,1.60
2022-08-12T03:22:41.372Z,1.50
2022-08-12T03:25:16.290Z,1.33
2022-08-12T03:27:49.874Z,1.75
2022-08-12T03:30:20.955Z,1.52
2022-08-12T03:32:50.902Z,1.58
2022-08-12T03:35:41.351Z,1.70
2022-08-12T03:38:16.228Z,1.60
2022-08-12T03:41:17.865Z,1.60
2022-08-12T03:44:10.914Z,1.60
2022-08-12T03:49:43.559Z,1.33
2022-08-12T03:52:29.047Z,2.25
2022-08-12T03:55:14.665Z,2.35
2022-08-12T03:58:00.182Z,1.40
2022-08-12T04:00:30.333Z,1.77
2022-08-12T04:03:01.846Z,1.60
2022-08-12T04:05:54.561Z,1.50
2022-08-12T04:08:24.014Z,1.80
2022-08-12T04:11:06.042Z,1.80
2022-08-12T04:13:34.623Z,1.60
2022-08-12T04:16:04.417Z,1.58
2022-08-12T04:18:34.722Z,1.48
2022-08-12T04:21:04.535Z,1.40
2022-08-12T04:23:33.857Z,1.40
2022-08-12T04:26:01.924Z,2.08
2022-08-12T04:28:29.973Z,1.65
2022-08-12T04:30:58.218Z,1.58
2022-08-12T04:33:27.105Z,1.63
2022-08-12T04:35:57.509Z,1.45
2022-08-12T04:38:27.060Z,1.55
2022-08-12T04:40:56.139Z,1.95
2022-08-12T04:43:59.827Z,1.77
2022-08-12T04:46:14.054Z,1.67
2022-08-12T04:48:42.273Z,1.60
2022-08-12T04:51:12.298Z,1.58
2022-08-12T04:53:41.408Z,1.40
2022-08-12T04:56:11.006Z,1.67
2022-08-12T04:58:39.325Z,1.67
2022-08-12T05:01:07.687Z,1.20
2022-08-12T05:03:46.413Z,1.38
2022-08-12T05:06:26.962Z,1.92
2022-08-12T05:08:56.058Z,1.40
2022-08-12T05:11:25.300Z,1.40
2022-08-12T05:13:59.723Z,1.48
2022-08-12T05:16:30.757Z,1.25
2022-08-12T05:18:59.794Z,1.42
2022-08-12T05:21:29.496Z,1.40
2022-08-12T05:23:57.607Z,1.25
2022-08-12T05:26:25.795Z,1.40
2022-08-12T05:28:54.232Z,1.48
2022-08-12T05:31:47.541Z,1.60
2022-08-12T05:34:14.820Z,1.85
2022-08-12T05:36:45.073Z,1.50
2022-08-12T05:39:13.354Z,1.40
2022-08-12T05:41:41.688Z,1.50
2022-08-12T05:44:12.825Z,1.42
2022-08-12T05:46:41.304Z,1.50
2022-08-12T05:49:10.400Z,1.67
2022-08-12T05:51:41.540Z,1.40
2022-08-12T05:54:12.338Z,1.27
2022-08-12T05:56:41.739Z,1.60
2022-08-12T05:59:11.451Z,1.85
2022-08-12T06:02:10.229Z,1.60
2022-08-12T06:04:29.647Z,1.52
2022-08-12T06:06:57.764Z,1.33
2022-08-12T06:09:28.769Z,1.98
2022-08-12T06:12:05.816Z,1.40
2022-08-12T06:14:37.708Z,1.38
2022-08-12T06:17:08.545Z,1.80
2022-08-12T06:20:27.771Z,1.60
2022-08-12T06:22:26.052Z,1.50
2022-08-12T06:24:55.516Z,1.70
2022-08-12T06:27:23.587Z,1.60
2022-08-12T06:30:08.283Z,1.77
2022-08-12T06:32:51.869Z,1.92
2022-08-12T06:35:48.086Z,1.85
2022-08-12T06:38:17.608Z,1.90
2022-08-12T06:41:05.837Z,1.92
2022-08-12T06:44:06.864Z,1.70
2022-08-12T06:46:23.274Z,1.50
2022-08-12T06:48:55.273Z,1.50
2022-08-12T06:53:51.414Z,1.88
2022-08-12T06:56:20.958Z,1.88
2022-08-12T06:58:49.288Z,1.85
2022-08-12T07:01:18.727Z,1.70
2022-08-12T07:03:47.220Z,1.88
2022-08-12T07:06:15.307Z,2.00
2022-08-12T07:08:44.993Z,1.80
2022-08-12T07:11:15.716Z,2.30
2022-08-12T07:14:12.011Z,1.90
2022-08-12T07:16:53.836Z,1.92
2022-08-12T07:19:22.199Z,2.22
2022-08-12T07:22:02.347Z,2.00
2022-08-12T07:24:30.911Z,1.90
2022-08-12T07:26:59.541Z,1.77
2022-08-12T07:30:03.920Z,2.13
2022-08-12T07:32:17.684Z,1.80
2022-08-12T07:34:47.488Z,1.55
2022-08-12T07:37:17.882Z,2.20
2022-08-12T07:39:51.010Z,2.30
2022-08-12T07:42:27.503Z,1.90
2022-08-12T07:44:57.331Z,2.00
2022-08-12T07:47:27.512Z,2.05
2022-08-12T07:50:04.669Z,2.20
2022-08-12T07:52:34.859Z,2.22
2022-08-12T07:55:03.628Z,2.10
2022-08-12T07:57:32.925Z,1.77
2022-08-12T08:00:05.713Z,2.30
2022-08-12T08:02:35.925Z,2.05
2022-08-12T08:05:05.045Z,2.25
2022-08-12T08:07:33.585Z,2.33
2022-08-12T08:10:05.118Z,2.05
2022-08-12T08:12:50.640Z,2.20
2022-08-12T08:15:20.322Z,2.22
2022-08-12T08:17:58.017Z,2.38
2022-08-12T08:20:28.857Z,2.20
2022-08-12T08:22:58.622Z,2.10
2022-08-12T08:25:37.203Z,2.35
2022-08-12T08:28:08.643Z,2.38
2022-08-12T08:30:40.228Z,2.10
2022-08-12T08:35:59.322Z,2.40
2022-08-12T08:38:32.857Z,2.15
2022-08-12T08:42:15.213Z,2.22
2022-08-12T08:44:11.901Z,2.08
2022-08-12T08:46:43.816Z,2.40
2022-08-12T08:49:13.726Z,2.67
2022-08-12T08:51:42.887Z,2.42
2022-08-12T08:54:11.637Z,2.30
2022-08-12T08:56:46.619Z,2.80
2022-08-12T08:59:15.417Z,2.30
2022-08-12T09:01:45.143Z,2.20
2022-08-12T09:05:13.995Z,2.30
2022-08-12T09:07:17.183Z,2.40
2022-08-12T09:10:02.945Z,2.10
2022-08-12T09:15:39.139Z,2.63
2022-08-12T09:18:12.046Z,2.05
2022-08-12T09:20:42.407Z,2.30
2022-08-12T09:23:58.944Z,2.00
2022-08-12T09:26:03.996Z,2.20
2022-08-12T09:28:34.544Z,2.58
2022-08-12T09:32:03.847Z,2.42
2022-08-12T09:34:27.449Z,1.85
2022-08-12T09:40:05.442Z,2.22
2022-08-12T09:42:45.722Z,2.35
2022-08-12T09:45:24.665Z,2.35
2022-08-12T09:48:20.214Z,2.13
2022-08-12T09:50:55.261Z,2.08
2022-08-12T09:53:29.251Z,2.10
2022-08-12T09:57:00.685Z,2.10
2022-08-12T09:59:00.062Z,2.00
2022-08-12T10:01:35.404Z,2.05
2022-08-12T10:04:19.946Z,2.05
2022-08-12T10:06:55.013Z,2.00
2022-08-12T10:09:28.307Z,2.00
2022-08-12T10:12:14.445Z,2.00
2022-08-12T10:14:59.363Z,2.10
2022-08-12T10:17:27.539Z,2.03
2022-08-12T10:19:55.653Z,2.60
2022-08-12T10:22:37.228Z,2.30
2022-08-12T10:25:29.694Z,2.50
2022-08-12T10:28:31.024Z,1.95
2022-08-12T10:31:01.274Z,2.10
2022-08-12T10:33:32.146Z,2.40
2022-08-12T10:36:02.052Z,1.90
2022-08-12T10:38:37.836Z,2.38
2022-08-12T10:41:57.187Z,2.10
2022-08-12T10:44:17.500Z,2.20
2022-08-12T10:46:49.461Z,1.98
2022-08-12T10:50:02.438Z,1.92
2022-08-12T10:52:34.807Z,2.05
2022-08-12T10:54:57.202Z,2.13
2022-08-12T10:58:15.794Z,2.20
2022-08-12T11:00:33.717Z,1.85
2022-08-12T11:04:23.064Z,1.73
2022-08-12T11:07:09.742Z,2.05
2022-08-12T11:08:46.123Z,1.95
2022-08-12T11:12:35.135Z,2.20
2022-08-12T11:14:13.077Z,2.20
2022-08-12T11:17:34.140Z,2.17
2022-08-12T11:19:46.446Z,1.70
2022-08-12T11:22:14.656Z,1.70
2022-08-12T11:24:51.701Z,1.80
2022-08-12T11:27:23.271Z,1.60
2022-08-12T11:30:03.755Z,1.63
2022-08-12T11:32:38.821Z,1.80
2022-08-12T11:35:08.453Z,1.73
2022-08-12T11:37:59.302Z,2.10
2022-08-12T11:40:26.750Z,1.65
2022-08-12T11:43:19.388Z,1.75
2022-08-12T11:45:53.196Z,1.80
2022-08-12T11:48:27.125Z,1.65
2022-08-12T11:50:56.096Z,1.90
2022-08-12T11:53:57.096Z,1.80
2022-08-12T11:56:12.273Z,2.20
2022-08-12T12:02:00.957Z,2.03
2022-08-12T12:04:28.813Z,2.00
2022-08-12T12:07:07.388Z,1.83
2022-08-12T12:09:51.999Z,1.70
2022-08-12T12:12:22.308Z,2.38
2022-08-12T12:14:54.785Z,2.30
2022-08-12T12:17:24.590Z,1.80
2022-08-12T12:19:53.356Z,1.90
2022-08-12T12:22:23.732Z,1.70
2022-08-12T12:24:59.179Z,2.10
2022-08-12T12:28:04.792Z,1.70
2022-08-12T12:30:35.901Z,1.70
2022-08-12T12:33:06.009Z,1.73
2022-08-12T12:36:06.028Z,1.70
2022-08-12T12:38:25.278Z,2.13
2022-08-12T12:40:54.821Z,2.33
2022-08-12T12:43:28.638Z,1.70
2022-08-12T12:46:12.325Z,1.90
2022-08-12T12:48:44.289Z,2.03
2022-08-12T12:51:49.030Z,1.88
2022-08-12T12:54:10.596Z,1.92
2022-08-12T12:56:42.958Z,1.60
2022-08-12T12:59:56.595Z,1.92
2022-08-12T13:02:08.125Z,1.73
2022-08-12T13:04:37.319Z,2.65
2022-08-12T13:07:06.835Z,1.50
2022-08-12T13:09:36.379Z,1.75
2022-08-12T13:12:10.410Z,1.98
2022-08-12T13:14:39.592Z,1.70
2022-08-12T13:17:14.481Z,1.60
2022-08-12T13:19:46.682Z,1.70
2022-08-12T13:22:21.102Z,1.88
2022-08-12T13:24:52.124Z,1.63
2022-08-12T13:27:35.152Z,1.65
2022-08-12T13:30:11.085Z,1.85
2022-08-12T13:32:42.702Z,1.77
2022-08-12T13:35:20.081Z,1.90
2022-08-12T13:38:02.678Z,2.00
2022-08-12T13:40:33.158Z,2.17
2022-08-12T13:43:05.504Z,1.73
2022-08-12T13:45:35.134Z,2.00
2022-08-12T13:48:07.710Z,1.65
2022-08-12T13:50:38.586Z,1.80
2022-08-12T13:53:24.304Z,1.60
2022-08-12T13:55:59.577Z,1.55
2022-08-12T13:58:30.927Z,1.98
2022-08-12T14:01:06.349Z,1.90
2022-08-12T14:03:50.238Z,1.80
2022-08-12T14:06:20.378Z,1.80
2022-08-12T14:08:49.904Z,1.90
2022-08-12T14:11:19.459Z,2.13
2022-08-12T14:14:05.364Z,1.63
2022-08-12T14:16:48.960Z,1.63
2022-08-12T14:19:24.302Z,1.50
2022-08-12T14:21:59.879Z,1.75
2022-08-12T14:24:31.594Z,1.80
2022-08-12T14:27:02.078Z,1.77
2022-08-12T14:29:56.024Z,2.00
2022-08-12T14:32:19.720Z,1.60
2022-08-12T14:34:51.571Z,1.98
2022-08-12T14:40:09.522Z,1.55
2022-08-12T14:42:37.571Z,1.98
2022-08-12T14:45:07.452Z,2.10
2022-08-12T14:47:35.779Z,1.30
2022-08-12T14:50:37.233Z,1.52
2022-08-12T14:58:32.731Z,2.45
2022-08-12T15:01:21.174Z,1.55
2022-08-12T15:03:53.904Z,1.60
2022-08-12T15:06:43.940Z,1.70
2022-08-12T15:09:16.073Z,1.80
2022-08-12T15:11:54.593Z,1.75
2022-08-12T15:14:30.095Z,1.60
2022-08-12T15:17:00.505Z,1.60
2022-08-12T15:20:12.083Z,1.73
2022-08-12T15:22:37.726Z,2.83
2022-08-12T15:25:09.110Z,1.85
2022-08-12T15:28:05.865Z,1.70
2022-08-12T15:30:33.850Z,1.67
2022-08-12T15:33:12.220Z,1.80
2022-08-12T15:35:53.266Z,1.80
2022-08-12T15:38:27.189Z,2.00
2022-08-12T15:40:59.059Z,1.60
2022-08-12T15:44:15.755Z,1.80
2022-08-12T15:46:18.532Z,1.85
2022-08-12T15:48:49.521Z,1.70
2022-08-12T15:51:58.803Z,1.63
2022-08-12T15:54:33.724Z,1.83
2022-08-12T15:57:08.355Z,1.70
2022-08-12T16:00:00.444Z,1.80
2022-08-12T16:02:29.830Z,1.60
2022-08-12T16:04:58.594Z,2.20
2022-08-12T16:07:37.149Z,1.75
2022-08-12T16:10:10.562Z,2.13
2022-08-12T16:12:43.173Z,1.80
2022-08-12T16:15:13.337Z,1.83
2022-08-12T16:18:15.175Z,1.70
2022-08-12T16:20:33.735Z,1.67
2022-08-12T16:23:04.805Z,1.80
2022-08-12T16:26:05.306Z,1.90
2022-08-12T16:28:33.959Z,2.20
2022-08-12T16:31:02.380Z,1.80
2022-08-12T16:33:58.923Z,2.72
2022-08-12T16:36:26.076Z,2.15
2022-08-12T16:38:54.139Z,1.70
2022-08-12T16:41:28.309Z,1.83
2022-08-12T16:44:01.744Z,1.80
2022-08-12T16:46:34.059Z,2.00
2022-08-12T16:49:09.363Z,2.15
2022-08-12T16:51:46.371Z,1.75
2022-08-12T16:54:17.065Z,1.85
2022-08-12T16:56:54.751Z,2.10
2022-08-12T16:59:31.031Z,1.98
2022-08-12T17:02:31.976Z,1.58
2022-08-12T17:05:04.876Z,1.80
2022-08-12T17:07:38.272Z,1.83
2022-08-12T17:10:14.019Z,2.05
2022-08-12T17:12:48.121Z,2.10
2022-08-12T17:15:50.332Z,1.95
2022-08-12T17:18:15.233Z,1.80
2022-08-12T17:20:58.598Z,2.00
2022-08-12T17:26:22.256Z,1.92
2022-08-12T17:28:52.643Z,1.88
2022-08-12T17:32:01.144Z,1.80
2022-08-12T17:34:33.262Z,2.03
2022-08-12T17:37:04.969Z,1.90
2022-08-12T17:42:34.549Z,2.05
2022-08-12T17:45:17.736Z,2.17
2022-08-12T17:48:02.281Z,1.98
2022-08-12T17:50:38.946Z,1.73
2022-08-12T17:53:10.053Z,1.80
2022-08-12T17:55:47.790Z,2.13
2022-08-12T17:58:18.803Z,1.88
2022-08-12T18:00:51.868Z,1.88
2022-08-12T18:04:13.733Z,1.77
2022-08-12T18:06:14.640Z,1.83
2022-08-12T18:08:54.265Z,2.13
2022-08-12T18:12:05.069Z,1.90
2022-08-12T18:14:30.030Z,2.20
2022-08-12T18:17:02.554Z,1.60
2022-08-12T18:20:04.358Z,1.92
2022-08-12T18:22:21.700Z,2.22
2022-08-12T18:25:00.852Z,2.00
2022-08-12T18:27:43.797Z,1.90
2022-08-12T18:30:20.545Z,2.00
2022-08-12T18:33:03.513Z,1.90
2022-08-12T18:35:47.287Z,1.85
2022-08-12T18:38:22.668Z,2.08
2022-08-12T18:41:20.841Z,2.05
2022-08-12T18:44:00.304Z,1.70
2022-08-12T18:46:47.461Z,1.77
2022-08-12T18:49:23.634Z,1.70
2022-08-12T18:52:02.636Z,1.60
2022-08-12T18:54:35.332Z,1.85
2022-08-12T18:57:19.758Z,1.80
2022-08-12T19:00:01.744Z,1.80
2022-08-12T19:02:40.313Z,2.00
2022-08-12T19:05:12.365Z,2.13
2022-08-12T19:07:57.937Z,2.17
2022-08-12T19:10:30.909Z,1.80
2022-08-12T19:13:23.373Z,1.80
2022-08-12T19:15:53.882Z,1.90
2022-08-12T19:18:24.892Z,1.80
2022-08-12T19:21:06.416Z,1.80
2022-08-12T19:23:35.961Z,2.00
2022-08-12T19:26:04.830Z,1.60
2022-08-12T19:28:36.374Z,2.20
2022-08-12T19:31:45.169Z,2.38
2022-08-12T19:37:26.788Z,2.00
2022-08-12T19:40:09.686Z,2.05
2022-08-12T19:42:57.491Z,2.05
2022-08-12T19:45:43.906Z,1.80
2022-08-12T19:48:19.668Z,1.80
2022-08-12T19:50:53.032Z,1.60
2022-08-12T19:53:24.364Z,2.00
2022-08-12T19:55:54.158Z,1.98
2022-08-12T19:58:23.525Z,1.95
2022-08-12T20:00:53.446Z,2.15
2022-08-12T20:03:38.076Z,1.85
2022-08-12T20:06:13.382Z,1.70
2022-08-12T20:08:49.299Z,1.58
2022-08-12T20:12:12.295Z,1.73
2022-08-12T20:14:18.058Z,1.90
2022-08-12T20:16:51.637Z,1.98
2022-08-12T20:19:23.722Z,1.70
2022-08-12T20:21:52.033Z,1.70
2022-08-12T20:24:31.242Z,1.88
2022-08-12T20:27:00.374Z,1.85
2022-08-12T20:29:35.517Z,2.33
2022-08-12T20:32:12.567Z,2.00
2022-08-12T20:34:43.265Z,1.67
2022-08-12T20:37:13.592Z,1.63
2022-08-12T20:39:55.913Z,1.70
2022-08-12T20:42:25.714Z,1.52
2022-08-12T20:44:59.685Z,1.98
2022-08-12T20:47:41.883Z,1.80
2022-08-12T20:50:11.590Z,1.67
2022-08-12T20:52:40.152Z,1.75
2022-08-12T20:55:15.665Z,1.90
2022-08-12T20:58:02.452Z,1.60
2022-08-12T21:00:32.977Z,1.50
2022-08-12T21:03:21.226Z,2.10
2022-08-12T21:06:23.639Z,1.63
2022-08-12T21:08:52.429Z,1.70
2022-08-12T21:11:22.984Z,1.80
2022-08-12T21:13:59.158Z,1.88
2022-08-12T21:16:35.311Z,1.73
2022-08-12T21:19:08.125Z,1.52
2022-08-12T21:21:50.202Z,2.22
2022-08-12T21:24:18.664Z,1.67
2022-08-12T21:26:53.562Z,1.70
2022-08-12T21:29:22.125Z,1.50
2022-08-12T21:32:37.940Z,1.52
2022-08-12T21:34:39.345Z,2.00
2022-08-12T21:37:26.630Z,2.25
2022-08-12T21:39:56.504Z,1.67
2022-08-12T21:42:27.872Z,1.77
2022-08-12T21:45:47.574Z,1.83
2022-08-12T21:47:46.550Z,2.25
2022-08-12T21:50:21.154Z,2.10
2022-08-12T21:52:50.162Z,2.30
2022-08-12T21:55:20.244Z,2.00
2022-08-12T21:57:54.962Z,2.55
2022-08-12T22:00:36.712Z,2.33
2022-08-12T22:04:02.043Z,2.15
2022-08-12T22:06:30.428Z,2.15
2022-08-12T22:09:07.770Z,2.00
2022-08-12T22:11:41.904Z,2.15
2022-08-12T22:14:21.243Z,2.10
2022-08-12T22:16:51.663Z,2.10
2022-08-12T22:19:21.046Z,1.90
2022-08-12T22:21:53.390Z,1.80
2022-08-12T22:24:26.955Z,1.95
2022-08-12T22:26:58.803Z,2.00
2022-08-12T22:29:45.849Z,2.05
2022-08-12T22:32:15.647Z,1.83
2022-08-12T22:34:44.823Z,1.70
2022-08-12T22:37:19.826Z,2.00
2022-08-12T22:39:49.244Z,2.38
2022-08-12T22:42:43.876Z,2.00
2022-08-12T22:45:48.345Z,2.53
2022-08-12T22:48:26.785Z,2.25
2022-08-12T22:51:13.750Z,2.80
2022-08-12T22:53:42.355Z,3.40
2022-08-12T22:56:10.589Z,2.92
2022-08-12T22:58:45.127Z,2.70
2022-08-12T23:01:51.595Z,3.15
2022-08-12T23:04:03.098Z,2.95
2022-08-12T23:06:31.235Z,2.70
2022-08-12T23:08:59.558Z,2.55
2022-08-12T23:11:33.594Z,2.65
2022-08-12T23:14:03.510Z,2.00
2022-08-12T23:16:34.322Z,2.33
2022-08-12T23:19:11.071Z,2.17
2022-08-12T23:22:04.909Z,2.35
2022-08-12T23:24:41.151Z,2.30
2022-08-12T23:27:50.770Z,2.60
2022-08-12T23:30:31.170Z,2.22
2022-08-12T23:33:02.126Z,2.50
2022-08-12T23:35:45.630Z,2.58
2022-08-12T23:38:28.956Z,2.53
2022-08-12T23:41:01.218Z,2.90
2022-08-12T23:43:39.076Z,2.75
2022-08-12T23:46:18.571Z,3.30
2022-08-12T23:48:50.562Z,2.97
2022-08-12T23:51:24.637Z,3.30
2022-08-12T23:53:56.431Z,3.28
2022-08-12T23:56:33.116Z,3.60
2022-08-12T23:59:02.827Z,3.50
